KPWA/PWA METAR and TAF weather

Enter ICAO airport designator
Station Type Date Time Source
KPWA METAR 2018/12/15 03:53 UTC NOAA

KPWA 150353Z AUTO 35012KT 10SM CLR 04/M07 A3019 RMK AO2 SLP228 T00391067


Station Type Date Time Source
KPWA Decoded METAR 2018/12/15 03:53 UTC NOAA

WILEY POST, OK, United States (KPWA) 35-32N 97-39W 397M
Dec 14, 2018 - 10:53 PM EST / 2018.12.15 0353 UTC
Wind: from the N (350 degrees) at 14 MPH (12 KT):0
Visibility: 10 mile(s):0
Sky conditions: clear
Temperature: 39.0 F (3.9 C)
Dew Point: 19.9 F (-6.7 C)
Relative Humidity: 45%
Pressure (altimeter): 30.19 in. Hg (1022 hPa)
ob: KPWA 150353Z AUTO 35012KT 10SM CLR 04/M07 A3019 RMK AO2 SLP228 T00391067
cycle: 4

Station Type Date Time Source
KPWA TAF UTC NOAA

Error!


Example: see airport list